Augusta, Ohio
Current Conditions -  °F | °C
As of 2:53 AM on Saturday 01 Nov 2014 (Local Time) from KPHD Reporting Station
Light Rain Light Rain  
Wind Chill: 42°   Ceiling: 2800
Heat Index: 44°   Visibility: 7mi
Dew Point: 40°   Wind: 5mph
Humidity: 85%   Direction: 360°N
Pressure: 29.92"   Gusts: NA
Location:  40.69°N, 81.02°W
Report Text: KPHD 010653Z AUTO 36004KT 7SM -RA OVC028 07/04 A2992 RMK AO2 SLP135 P0002 T00670044
Loading
Personal Weather Stations






























Interactive Weather Map
Tropical Storm Tracking
New forecast layout! Learn more

10-Day Weather Forecast

Advertisements
Track Severe Weather on mobile